Latest Weather Observations for Charles Point

IDD60901

Issued at 12:31 pm CST Saturday 27 August 2016 (issued every 10 minutes, with the page automatically refreshed every 10 minutes)

About weather observations | Map of Darwin area stations | Latest observations for Darwin area | Other Formats
Station Details ID: 014031 Name: CHARLES POINT Lat: -12.39 Lon: 130.63 Height: 14.0 m
Data from the previous 72 hours. | See also: Recent months for locations in Northern Territory
Date/Time
CST
Temp
°C
App
Temp
°C
Dew
Point
°C
Rel
Hum
%
Delta-T
°C
Wind Press
QNH
hPa
Press
MSL
hPa
Rain since
9am
mm
Dir  Spd
km/h
Gust
km/h
Spd
kts
Gust
kts
27/12:30pm 27.9 26.5 18.0 55 6.3 NE 22 32 12 17 1014.8 1014.7 0.0
27/12:00pm 29.4 26.6 13.2 37 9.6 ENE 20 30 11 16 1015.4 1015.3 0.0
27/11:30am 29.9 27.3 11.9 33 10.5 ENE 17 28 9 15 1015.9 1015.8 0.0
27/11:00am 30.4 28.9 13.2 35 10.3 ENE 13 24 7 13 1016.2 1016.1 0.0
27/10:30am 28.8 26.6 12.2 35 9.7 ENE 15 24 8 13 1016.3 1016.2 0.0
27/10:00am 28.6 26.2 12.5 37 9.4 E 17 28 9 15 1016.3 1016.2 0.0
27/09:30am 28.0 27.1 16.9 51 6.9 E 17 28 9 15 1016.3 1016.2 0.0
27/09:00am 27.6 28.2 20.2 64 4.8 E 17 28 9 15 1016.0 1015.9 0.0
27/08:30am 27.3 28.2 20.1 64 4.7 ENE 15 28 8 15 1015.9 1015.8 0.0
27/08:00am 27.1 28.8 20.9 69 4.1 ENE 13 22 7 12 1015.8 1015.7 0.0
27/07:30am 26.3 27.7 21.1 73 3.4 ENE 15 28 8 15 1015.5 1015.4 0.0
27/07:00am 25.9 27.3 21.1 75 3.2 ENE 15 28 8 15 1015.2 1015.1 0.0
27/06:30am 25.9 27.8 21.3 76 3.0 ENE 13 24 7 13 1014.9 1014.8 0.0
27/06:00am 25.9 28.2 21.3 76 3.0 E 11 19 6 10 1014.7 1014.6 0.0
27/05:30am 26.1 29.2 22.2 79 2.6 E 9 19 5 10 1014.3 1014.2 0.0
27/05:00am 26.4 29.7 21.8 76 3.1 ENE 7 15 4 8 1014.1 1014.0 0.0
27/04:30am 26.3 29.0 21.3 74 3.3 ENE 9 17 5 9 1014.1 1014.0 0.0
27/04:00am 26.4 28.9 21.8 76 3.1 ENE 11 17 6 9 1014.1 1014.0 0.0
27/03:30am 26.4 29.3 22.5 79 2.6 ENE 11 19 6 10 1014.0 1013.9 0.0
27/03:00am 26.4 28.9 21.8 76 3.1 ENE 11 19 6 10 1013.8 1013.7 0.0
27/02:30am 26.4 30.5 22.3 78 2.8 NE 4 7 2 4 1014.2 1014.1 0.0
27/02:00am 26.5 30.1 22.3 78 2.8 NNE 7 11 4 6 1014.2 1014.1 0.0
27/01:30am 26.7 30.5 22.8 79 2.6 N 7 9 4 5 1014.5 1014.4 0.0
27/01:00am 26.8 30.8 23.1 80 2.5 N 7 9 4 5 1014.5 1014.4 0.0
27/12:30am 26.0 31.2 22.9 83 2.1 CALM 0 2 0 1 1014.6 1014.5 0.0
27/12:00am 26.8 30.8 23.1 80 2.5 NW 7 11 4 6 1014.5 1014.4 0.0
 
Date/Time
CST
Temp
°C
App
Temp
°C
Dew
Point
°C
Rel
Hum
%
Delta-T
°C
Wind Press
QNH
hPa
Press
MSL
hPa
Rain since
9am
mm
Dir  Spd
km/h
Gust
km/h
Spd
kts
Gust
kts
26/11:30pm 27.1 30.5 23.3 80 2.6 NW 11 15 6 8 1014.3 1014.2 0.0
26/11:00pm 27.4 30.9 23.6 80 2.6 NW 11 17 6 9 1014.1 1014.0 0.0
26/10:30pm 27.8 31.8 22.7 74 3.5 NE 6 9 3 5 1013.9 1013.8 0.0
26/10:00pm 27.6 31.8 22.5 74 3.5 ENE 4 7 2 4 1013.8 1013.7 0.0
26/09:30pm 27.3 30.9 22.0 73 3.6 ENE 6 9 3 5 1013.6 1013.5 0.0
26/09:00pm 27.3 30.9 22.0 73 3.6 ENE 6 9 3 5 1013.3 1013.2 0.0
26/08:30pm 27.4 30.9 22.1 73 3.6 ENE 7 13 4 7 1012.9 1012.8 0.0
26/08:00pm 27.5 30.1 22.0 72 3.7 NE 11 17 6 9 1012.6 1012.5 0.0
26/07:30pm 27.5 29.3 21.8 71 3.8 NE 15 20 8 11 1012.4 1012.3 0.0
26/07:00pm 27.6 29.6 22.3 73 3.6 NE 15 22 8 12 1011.9 1011.8 0.0
26/06:30pm 27.6 28.9 22.3 73 3.6 NE 19 26 10 14 1011.6 1011.5 0.0
26/06:00pm 28.2 29.9 23.1 74 3.5 NE 19 26 10 14 1011.3 1011.2 0.0
26/05:30pm 28.7 29.8 22.0 67 4.5 NE 19 26 10 14 1011.1 1011.0 0.0
26/05:00pm 28.7 30.4 22.4 68 4.3 NE 17 24 9 13 1010.9 1010.8 0.0
26/04:30pm 29.0 30.8 22.5 68 4.4 NE 17 24 9 13 1010.7 1010.6 0.0
26/04:00pm 28.6 29.6 22.1 68 4.4 NE 20 26 11 14 1010.7 1010.6 0.0
26/03:30pm 28.7 29.4 22.2 68 4.4 NE 22 30 12 16 1010.9 1010.8 0.0
26/03:00pm 29.0 28.8 22.0 66 4.7 NE 26 35 14 19 1011.1 1011.0 0.0
26/02:30pm 28.6 29.2 22.8 71 4.0 NE 24 35 13 19 1011.6 1011.5 0.0
26/02:00pm 29.1 29.6 23.3 71 4.0 NE 26 35 14 19 1011.9 1011.8 0.0
26/01:30pm 29.0 30.1 23.0 70 4.1 NE 22 32 12 17 1012.4 1012.3 0.0
26/01:00pm 28.8 30.3 23.0 71 4.0 NE 20 30 11 16 1012.7 1012.6 0.0
26/12:30pm 28.9 30.5 23.3 72 3.8 NE 20 32 11 17 1013.1 1013.0 0.0
26/12:00pm 30.4 32.1 22.3 62 5.5 ENE 17 30 9 16 1013.3 1013.2 0.0
26/11:30am 30.8 33.2 22.9 62 5.4 ENE 15 22 8 12 1013.7 1013.6 0.0
26/11:00am 30.1 32.4 22.8 65 5.0 ENE 15 28 8 15 1013.8 1013.7 0.0
26/10:30am 29.5 31.5 22.2 65 4.9 ENE 15 26 8 14 1014.1 1014.0 0.0
26/10:00am 28.9 30.3 21.9 66 4.7 E 17 28 9 15 1014.2 1014.1 0.0
26/09:30am 28.0 29.0 21.8 69 4.2 ESE 19 32 10 17 1014.2 1014.1 0.0
26/09:00am 27.0 27.3 20.3 66 4.4 ESE 19 30 10 16 1014.2 1014.1 0.0
26/08:30am 26.7 26.5 17.5 57 5.8 SE 15 26 8 14 1013.8 1013.7 0.0
26/08:00am 26.1 24.5 13.9 47 7.2 SE 15 30 8 16 1013.5 1013.4 0.0
26/07:30am 25.5 23.4 12.4 44 7.5 SSE 15 24 8 13 1012.9 1012.8 0.0
26/07:00am 25.3 22.9 11.5 42 7.8 SE 15 26 8 14 1012.6 1012.5 0.0
26/06:30am 25.5 23.1 11.3 41 8.0 SSE 15 22 8 12 1012.2 1012.1 0.0
26/06:00am 25.4 23.3 11.2 41 8.0 SSE 13 20 7 11 1012.0 1011.9 0.0
26/05:30am 25.6 23.7 11.7 42 7.9 SSE 13 22 7 12 1011.8 1011.7 0.0
26/05:00am 25.8 24.3 13.0 45 7.5 SSE 13 19 7 10 1011.5 1011.4 0.0
26/04:30am 26.0 25.1 13.8 47 7.2 S 11 19 6 10 1011.5 1011.4 0.0
26/04:00am 26.1 25.2 14.9 50 6.7 S 13 24 7 13 1011.3 1011.2 0.0
26/03:30am 26.2 26.6 16.2 54 6.1 S 9 15 5 8 1011.5 1011.4 0.0
26/03:00am 26.3 27.0 17.1 57 5.7 SSW 9 17 5 9 1011.4 1011.3 0.0
26/02:30am 25.9 26.7 17.3 59 5.4 S 9 15 5 8 1011.5 1011.4 0.0
26/02:00am 25.2 26.9 18.6 67 4.2 SSW 7 13 4 7 1011.6 1011.5 0.0
26/01:30am 24.7 27.3 20.4 77 2.8 S 7 13 4 7 1011.8 1011.7 0.0
26/01:00am 25.5 28.2 21.4 78 2.7 S 9 13 5 7 1011.8 1011.7 0.0
26/12:30am 25.9 29.4 21.8 78 2.7 SSW 6 9 3 5 1011.9 1011.8 0.0
26/12:00am 26.0 29.2 21.7 77 2.9 SSW 7 13 4 7 1011.8 1011.7 0.0
 
Date/Time
CST
Temp
°C
App
Temp
°C
Dew
Point
°C
Rel
Hum
%
Delta-T
°C
Wind Press
QNH
hPa
Press
MSL
hPa
Rain since
9am
mm
Dir  Spd
km/h
Gust
km/h
Spd
kts
Gust
kts
25/11:30pm 26.1 29.5 22.0 78 2.7 SW 7 13 4 7 1011.8 1011.7 0.0
25/11:00pm 26.4 29.8 22.0 77 2.9 SW 7 13 4 7 1011.8 1011.7 0.0
25/10:30pm 26.4 29.1 20.7 71 3.8 SW 7 19 4 10 1011.7 1011.6 0.0
25/10:00pm 26.0 28.9 20.6 72 3.5 WSW 6 13 3 7 1011.6 1011.5 0.0
25/09:30pm 25.9 29.1 20.5 72 3.5 W 4 7 2 4 1011.5 1011.4 0.0
25/09:00pm 26.0 28.5 19.9 69 4.0 W 6 9 3 5 1011.1 1011.0 0.0
25/08:30pm 25.9 28.5 20.0 70 3.8 WSW 6 11 3 6 1010.8 1010.7 0.0
25/08:00pm 26.2 28.8 20.5 71 3.7 WSW 7 13 4 7 1010.5 1010.4 0.0
25/07:30pm 26.4 28.9 20.3 69 4.0 WSW 7 13 4 7 1010.3 1010.2 0.0
25/07:00pm 26.8 29.1 19.9 66 4.5 WSW 7 15 4 8 1010.0 1009.9 0.0
25/06:30pm 27.7 30.3 20.0 63 5.0 WSW 6 11 3 6 1009.7 1009.6 0.0
25/06:00pm 28.5 30.0 19.7 59 5.7 W 11 19 6 10 1009.5 1009.4 0.0
25/05:30pm 29.2 30.5 19.2 54 6.5 W 11 20 6 11 1009.2 1009.1 0.0
25/05:00pm 30.0 30.4 19.1 52 7.1 WNW 15 22 8 12 1008.9 1008.8 0.0
25/04:30pm 30.3 30.3 19.0 50 7.3 WNW 17 22 9 12 1008.8 1008.7 0.0
25/04:00pm 30.7 30.6 18.8 49 7.7 WNW 17 22 9 12 1008.9 1008.8 0.0
25/03:30pm 30.9 31.6 19.6 51 7.4 WNW 15 20 8 11 1008.9 1008.8 0.0
25/03:00pm 30.9 31.4 19.3 50 7.6 WNW 15 20 8 11 1009.2 1009.1 0.0
25/02:30pm 30.8 30.9 19.2 50 7.6 WNW 17 22 9 12 1009.5 1009.4 0.0
25/02:00pm 30.6 30.8 19.3 51 7.4 WNW 17 20 9 11 1009.8 1009.7 0.0
25/01:30pm 31.3 31.1 18.6 46 8.2 WNW 17 20 9 11 1010.2 1010.1 0.0
25/01:00pm 31.3 31.0 18.3 46 8.4 WNW 17 22 9 12 1010.6 1010.5 0.0
25/12:30pm 31.7 30.3 15.6 37 10.0 WNW 17 19 9 10 1011.0 1010.9 0.0
25/12:00pm 30.9 32.2 17.6 45 8.5 N 7 11 4 6 1011.4 1011.3 0.0
25/11:30am 30.7 32.8 19.4 51 7.4 NE 7 13 4 7 1011.8 1011.7 0.0
25/11:00am 29.9 30.2 16.0 43 8.6 E 9 19 5 10 1011.9 1011.8 0.0
25/10:30am 31.2 30.4 13.0 33 10.9 SSE 9 17 5 9 1012.1 1012.0 0.0
25/10:00am 30.6 30.6 14.3 37 9.9 S 7 11 4 6 1012.3 1012.2 0.0
25/09:30am 28.9 29.5 15.8 45 8.1 S 7 13 4 7 1012.3 1012.2 0.0
25/09:00am 27.0 28.5 18.8 60 5.3 SSE 9 17 5 9 1012.3 1012.2 0.0
25/08:30am 25.1 27.2 20.1 74 3.2 SSE 9 15 5 8 1012.2 1012.1 0.0
25/08:00am 23.6 25.8 20.5 83 2.0 SSE 9 19 5 10 1011.9 1011.8 0.0
25/07:30am 22.6 25.0 20.9 90 1.1 S 9 13 5 7 1011.6 1011.5 0.0
25/07:00am 22.8 26.1 21.4 92 0.9 SSW 6 9 3 5 1011.1 1011.0 0.0
25/06:30am 22.8 26.8 21.3 91 1.0 SSW 2 4 1 2 1010.5 1010.4 0.0
25/06:00am 22.8 27.0 20.9 89 1.2 CALM 0 0 0 0 1010.0 1009.9 0.0
25/05:30am 23.1 26.4 20.8 87 1.5 SSW 4 4 2 2 1009.7 1009.6 0.0
25/05:00am 23.9 27.7 21.6 87 1.5 SW 4 9 2 5 1009.5 1009.4 0.0
25/04:30am 23.6 27.2 21.3 87 1.5 SW 4 6 2 3 1009.2 1009.1 0.0
25/04:00am 24.6 28.9 21.1 81 2.3 CALM 0 2 0 1 1009.2 1009.1 0.0
25/03:30am 25.4 29.1 21.5 79 2.6 SW 4 6 2 3 1009.3 1009.2 0.0
25/03:00am 25.8 29.6 21.7 78 2.7 SW 4 6 2 3 1009.5 1009.4 0.0
25/02:30am 25.9 29.8 21.8 78 2.7 SW 4 6 2 3 1009.7 1009.6 0.0
25/02:00am 25.9 29.7 21.6 77 2.9 SW 4 6 2 3 1009.9 1009.8 0.0
25/01:30am 26.0 29.4 21.7 77 2.9 SW 6 9 3 5 1010.1 1010.0 0.0
25/01:00am 26.2 29.6 21.6 76 3.1 SW 6 7 3 4 1010.5 1010.4 0.0
25/12:30am 26.3 29.6 21.5 75 3.2 SW 6 11 3 6 1010.8 1010.7 0.0
25/12:00am 26.3 29.5 21.3 74 3.3 SW 6 9 3 5 1010.9 1010.8 0.0
 
Date/Time
CST
Temp
°C
App
Temp
°C
Dew
Point
°C
Rel
Hum
%
Delta-T
°C
Wind Press
QNH
hPa
Press
MSL
hPa
Rain since
9am
mm
Dir  Spd
km/h
Gust
km/h
Spd
kts
Gust
kts
24/11:30pm 26.2 29.2 21.2 74 3.3 SW 7 11 4 6 1010.8 1010.7 0.0
24/11:00pm 25.9 28.8 21.1 75 3.2 SW 7 15 4 8 1011.0 1010.9 0.0
24/10:30pm 25.7 28.6 21.1 76 3.0 SW 7 13 4 7 1011.0 1010.9 0.0
24/10:00pm 25.7 29.0 21.4 77 2.9 SW 6 13 3 7 1010.8 1010.7 0.0
24/09:30pm 25.7 28.8 21.1 76 3.0 SW 6 13 3 7 1010.7 1010.6 0.0
24/09:00pm 25.8 28.8 21.2 76 3.0 SW 7 17 4 9 1010.5 1010.4 0.0
24/08:30pm 25.8 29.0 21.2 76 3.0 SW 6 13 3 7 1010.3 1010.2 0.0
24/08:00pm 26.0 28.9 21.0 74 3.3 WSW 7 15 4 8 1009.9 1009.8 0.0
24/07:30pm 26.1 28.9 20.9 73 3.4 WSW 7 11 4 6 1009.6 1009.5 0.0
24/07:00pm 26.5 29.4 21.0 72 3.6 WSW 7 17 4 9 1009.3 1009.2 0.0
24/06:30pm 27.1 29.2 20.2 66 4.5 WSW 9 15 5 8 1009.0 1008.9 0.0
24/06:00pm 28.0 29.5 19.8 61 5.4 WSW 11 20 6 11 1008.8 1008.7 0.0
24/05:30pm 28.9 31.1 20.4 60 5.6 WSW 9 17 5 9 1008.5 1008.4 0.0
24/05:00pm 29.0 30.8 20.4 59 5.7 WSW 11 20 6 11 1008.1 1008.0 0.0
24/04:30pm 29.7 31.6 20.5 57 6.1 W 11 19 6 10 1008.0 1007.9 0.0
24/04:00pm 29.6 31.0 21.0 60 5.7 W 15 22 8 12 1008.0 1007.9 0.0
24/03:30pm 29.9 30.3 20.7 57 6.1 WNW 19 30 10 16 1008.1 1008.0 0.0
24/03:00pm 30.6 32.2 21.4 58 6.2 W 15 26 8 14 1008.3 1008.2 0.0
24/02:30pm 30.1 30.5 20.9 57 6.1 WNW 20 30 11 16 1008.7 1008.6 0.0
24/02:00pm 30.4 30.9 20.9 57 6.3 WNW 19 32 10 17 1009.0 1008.9 0.0
24/01:30pm 31.1 31.9 20.7 54 6.9 WNW 17 28 9 15 1009.4 1009.3 0.0
24/01:00pm 30.3 30.3 20.2 54 6.7 WNW 20 28 11 15 1010.0 1009.9 0.0

Latest Capital City Observations: Canberra | Sydney | Melbourne | Brisbane | Adelaide | Perth | Hobart | Darwin

Other Formats:

Comma delimited format used in spreadsheet applications
http://www.bom.gov.au/fwo/IDD60901/IDD60901.99510.axf

JavaScript Object Notation format (JSON) in row-major order
http://www.bom.gov.au/fwo/IDD60901/IDD60901.99510.json